createdAt,value
2022-11-15T00:02:30.235Z,9.52
2022-11-15T00:06:34.069Z,9.32
2022-11-15T00:10:37.537Z,9.27
2022-11-15T00:14:40.969Z,7.97
2022-11-15T00:18:50.260Z,8.35
2022-11-15T00:22:53.732Z,7.25
2022-11-15T00:26:58.732Z,8.05
2022-11-15T00:31:06.625Z,9.68
2022-11-15T00:35:11.164Z,7.82
2022-11-15T00:39:14.665Z,8.55
2022-11-15T00:43:18.126Z,9.40
2022-11-15T00:47:21.492Z,9.60
2022-11-15T00:51:25.959Z,9.52
2022-11-15T00:55:29.293Z,9.77
2022-11-15T00:59:32.804Z,10.52
2022-11-15T01:03:36.253Z,8.05
2022-11-15T01:07:40.882Z,8.77
2022-11-15T01:11:44.318Z,10.25
2022-11-15T01:15:48.262Z,9.35
2022-11-15T01:19:51.495Z,9.55
2022-11-15T01:23:58.003Z,8.98
2022-11-15T01:28:01.186Z,10.13
2022-11-15T01:32:05.031Z,9.30
2022-11-15T01:36:09.673Z,10.80
2022-11-15T01:40:15.110Z,10.57
2022-11-15T01:44:45.536Z,10.40
2022-11-15T01:48:49.045Z,9.02
2022-11-15T01:52:52.286Z,7.55
2022-11-15T01:57:01.690Z,9.70
2022-11-15T02:01:04.948Z,8.52
2022-11-15T02:05:09.222Z,8.60
2022-11-15T02:09:13.425Z,7.82
2022-11-15T02:13:20.433Z,8.25
2022-11-15T02:17:41.941Z,8.40
2022-11-15T02:21:54.580Z,9.27
2022-11-15T02:26:15.567Z,7.25
2022-11-15T02:30:43.891Z,8.60
2022-11-15T02:34:53.417Z,7.72
2022-11-15T02:39:04.681Z,8.18
2022-11-15T02:43:28.861Z,8.52
2022-11-15T02:47:40.042Z,11.07
2022-11-15T02:51:47.318Z,9.95
2022-11-15T02:55:54.074Z,9.48
2022-11-15T03:00:09.347Z,10.55
2022-11-15T03:04:26.446Z,8.30
2022-11-15T03:08:34.855Z,9.95
2022-11-15T03:12:45.208Z,10.60
2022-11-15T03:16:52.093Z,9.40
2022-11-15T03:20:58.248Z,9.05
2022-11-15T03:25:06.255Z,9.10
2022-11-15T03:29:15.468Z,9.85
2022-11-15T03:33:19.744Z,10.82
2022-11-15T03:37:31.649Z,9.88
2022-11-15T03:41:42.661Z,8.47
2022-11-15T03:45:53.951Z,7.82
2022-11-15T03:50:02.984Z,8.40
2022-11-15T03:54:08.238Z,8.80
2022-11-15T03:58:11.673Z,7.53
2022-11-15T04:02:15.644Z,7.82
2022-11-15T04:06:19.296Z,8.25
2022-11-15T04:10:23.723Z,7.60
2022-11-15T04:14:27.339Z,7.45
2022-11-15T04:18:30.899Z,8.32
2022-11-15T04:22:51.854Z,7.90
2022-11-15T04:26:56.252Z,7.32
2022-11-15T04:31:00.095Z,7.50
2022-11-15T04:35:03.616Z,8.50
2022-11-15T04:39:07.117Z,6.35
2022-11-15T04:43:11.925Z,7.10
2022-11-15T04:47:14.922Z,8.88
2022-11-15T04:51:18.644Z,6.70
2022-11-15T04:55:22.563Z,6.95
2022-11-15T04:59:27.489Z,8.02
2022-11-15T05:03:48.202Z,7.95
2022-11-15T05:07:51.225Z,8.20
2022-11-15T05:11:54.615Z,11.43
2022-11-15T05:15:59.509Z,12.00
2022-11-15T05:20:02.527Z,14.82
2022-11-15T05:24:06.622Z,14.27
2022-11-15T05:28:09.693Z,15.45
2022-11-15T05:32:15.224Z,16.83
2022-11-15T05:36:23.917Z,15.85
2022-11-15T05:40:28.141Z,16.02
2022-11-15T05:44:31.787Z,15.73
2022-11-15T05:48:37.499Z,19.05
2022-11-15T05:52:41.250Z,18.58
2022-11-15T05:56:45.165Z,18.80
2022-11-15T06:00:49.270Z,17.75
2022-11-15T06:04:54.145Z,18.05
2022-11-15T06:08:57.352Z,15.40
2022-11-15T06:13:01.177Z,14.93
2022-11-15T06:17:08.655Z,15.10
2022-11-15T06:21:16.200Z,16.90
2022-11-15T06:25:19.258Z,16.02
2022-11-15T06:29:22.758Z,17.55
2022-11-15T06:33:25.760Z,15.77
2022-11-15T06:37:30.817Z,14.77
2022-11-15T06:41:36.604Z,21.48
2022-11-15T06:45:39.688Z,16.45
2022-11-15T06:49:42.672Z,16.48
2022-11-15T06:53:47.703Z,17.15
2022-11-15T06:57:52.138Z,15.10
2022-11-15T07:01:55.198Z,14.52
2022-11-15T07:06:06.628Z,15.30
2022-11-15T07:10:11.931Z,15.07
2022-11-15T07:14:15.438Z,14.88
2022-11-15T07:18:18.876Z,15.32
2022-11-15T07:22:22.486Z,14.70
2022-11-15T07:26:27.003Z,13.90
2022-11-15T07:30:30.460Z,13.25
2022-11-15T07:34:33.645Z,14.23
2022-11-15T07:38:42.532Z,13.77
2022-11-15T07:42:57.372Z,12.98
2022-11-15T07:47:01.729Z,12.68
2022-11-15T07:51:09.899Z,10.65
2022-11-15T07:55:16.587Z,11.80
2022-11-15T07:59:21.580Z,12.90
2022-11-15T08:03:25.461Z,13.52
2022-11-15T08:07:32.245Z,13.45
2022-11-15T08:11:35.430Z,11.02
2022-11-15T08:15:40.682Z,12.70
2022-11-15T08:19:44.300Z,12.77
2022-11-15T08:23:47.648Z,10.63
2022-11-15T08:27:54.325Z,14.25
2022-11-15T08:31:59.165Z,12.02
2022-11-15T08:36:03.316Z,10.60
2022-11-15T08:40:08.509Z,9.73
2022-11-15T08:44:11.609Z,10.90
2022-11-15T08:48:16.704Z,12.88
2022-11-15T08:52:20.564Z,12.73
2022-11-15T08:56:23.664Z,12.68
2022-11-15T09:00:27.577Z,11.48
2022-11-15T09:04:32.769Z,13.43
2022-11-15T09:08:51.590Z,9.93
2022-11-15T09:12:55.203Z,10.65
2022-11-15T09:16:58.881Z,10.73
2022-11-15T09:21:03.960Z,9.77
2022-11-15T09:25:11.154Z,10.07
2022-11-15T09:29:14.688Z,11.05
2022-11-15T09:33:17.813Z,11.15
2022-11-15T09:37:22.657Z,12.63
2022-11-15T09:41:41.423Z,9.35
2022-11-15T09:45:59.024Z,9.85
2022-11-15T09:50:04.669Z,9.65
2022-11-15T09:58:51.207Z,11.68
2022-11-15T10:03:10.698Z,12.50
2022-11-15T10:07:20.773Z,11.02
2022-11-15T10:11:37.913Z,9.63
2022-11-15T10:15:46.375Z,10.50
2022-11-15T10:20:05.342Z,8.75
2022-11-15T10:24:14.735Z,9.80
2022-11-15T10:28:24.390Z,10.95
2022-11-15T10:32:28.589Z,9.80
2022-11-15T10:36:31.686Z,10.95
2022-11-15T10:40:35.536Z,9.55
2022-11-15T10:44:45.382Z,10.40
2022-11-15T10:48:49.003Z,10.20
2022-11-15T10:52:52.359Z,8.75
2022-11-15T10:56:57.977Z,8.80
2022-11-15T11:01:12.528Z,9.50
2022-11-15T11:05:30.605Z,8.52
2022-11-15T11:09:36.754Z,8.18
2022-11-15T11:13:42.026Z,8.68
2022-11-15T11:18:00.322Z,9.05
2022-11-15T11:22:12.873Z,9.10
2022-11-15T11:26:37.890Z,10.82
2022-11-15T11:30:50.203Z,8.52
2022-11-15T11:35:01.414Z,9.07
2022-11-15T11:39:22.475Z,7.97
2022-11-15T11:43:32.962Z,11.52
2022-11-15T11:47:42.978Z,7.82
2022-11-15T11:51:54.098Z,8.25
2022-11-15T11:56:01.431Z,8.80
2022-11-15T12:00:15.338Z,9.73
2022-11-15T12:04:21.608Z,10.30
2022-11-15T12:08:51.455Z,9.45
2022-11-15T12:13:03.595Z,9.05
2022-11-15T12:17:07.311Z,10.10
2022-11-15T12:21:18.339Z,7.93
2022-11-15T12:25:25.284Z,8.15
2022-11-15T12:29:36.741Z,8.10
2022-11-15T12:33:43.495Z,9.77
2022-11-15T12:37:58.850Z,8.35
2022-11-15T12:42:35.190Z,8.77
2022-11-15T12:47:07.108Z,8.32
2022-11-15T12:51:10.148Z,8.25
2022-11-15T12:55:34.414Z,8.45
2022-11-15T12:59:56.042Z,7.97
2022-11-15T13:04:25.316Z,10.00
2022-11-15T13:08:52.013Z,10.10
2022-11-15T13:12:58.701Z,9.45
2022-11-15T13:17:02.119Z,13.70
2022-11-15T13:21:39.386Z,10.75
2022-11-15T13:25:57.884Z,11.82
2022-11-15T13:30:18.800Z,8.95
2022-11-15T13:39:03.483Z,8.07
2022-11-15T18:39:46.523Z,5.43
2022-11-15T18:43:52.660Z,8.15
2022-11-15T18:47:56.130Z,8.07
2022-11-15T18:51:59.777Z,7.47
2022-11-15T18:56:05.539Z,9.02
2022-11-15T19:00:10.979Z,7.07
2022-11-15T19:04:16.018Z,7.68
2022-11-15T19:08:19.674Z,8.02
2022-11-15T19:12:24.634Z,7.18
2022-11-15T19:16:29.278Z,6.72
2022-11-15T19:20:33.281Z,7.35
2022-11-15T19:24:37.103Z,7.78
2022-11-15T19:28:41.872Z,8.27
2022-11-15T19:32:47.167Z,7.07
2022-11-15T19:36:50.670Z,7.05
2022-11-15T19:41:00.049Z,7.95
2022-11-15T19:45:05.673Z,7.63
2022-11-15T19:49:12.278Z,7.32
2022-11-15T19:53:15.458Z,7.25
2022-11-15T19:57:21.289Z,7.32
2022-11-15T20:01:29.674Z,6.40
2022-11-15T20:05:32.890Z,6.50
2022-11-15T20:09:37.478Z,7.75
2022-11-15T20:13:43.442Z,6.88
2022-11-15T20:17:52.169Z,6.95
2022-11-15T20:21:55.485Z,7.00
2022-11-15T20:25:59.302Z,7.53
2022-11-15T20:30:03.021Z,7.43
2022-11-15T20:34:08.090Z,7.72
2022-11-15T20:38:12.082Z,7.32
2022-11-15T20:42:15.969Z,6.80
2022-11-15T20:46:20.137Z,6.88
2022-11-15T20:50:42.191Z,6.13
2022-11-15T20:58:51.603Z,7.00
2022-11-15T21:02:56.384Z,7.05
2022-11-15T21:07:01.874Z,8.45
2022-11-15T21:11:22.974Z,7.10
2022-11-15T21:15:26.216Z,6.53
2022-11-15T21:19:35.543Z,6.90
2022-11-15T21:23:42.258Z,6.65
2022-11-15T21:27:46.636Z,7.35
2022-11-15T21:31:51.930Z,7.97
2022-11-15T21:35:57.087Z,8.80
2022-11-15T21:40:02.698Z,8.90
2022-11-15T21:44:07.814Z,9.02
2022-11-15T21:48:11.797Z,8.43
2022-11-15T21:52:15.461Z,8.68
2022-11-15T21:56:20.386Z,7.85
2022-11-15T22:00:41.775Z,6.97
2022-11-15T22:04:45.509Z,7.40
2022-11-15T22:08:49.307Z,7.15
2022-11-15T22:12:53.741Z,6.00
2022-11-15T22:16:56.900Z,7.15
2022-11-15T22:21:02.192Z,6.80
2022-11-15T22:25:05.911Z,7.72
2022-11-15T22:29:10.944Z,7.97
2022-11-15T22:33:14.151Z,7.53
2022-11-15T22:37:21.300Z,7.05
2022-11-15T22:41:25.055Z,6.43
2022-11-15T22:45:30.104Z,7.13
2022-11-15T22:49:33.329Z,7.45
2022-11-15T22:53:36.956Z,6.75
2022-11-15T22:57:40.530Z,7.63
2022-11-15T23:01:45.487Z,7.05
2022-11-15T23:05:49.486Z,6.28
2022-11-15T23:09:55.470Z,7.15
2022-11-15T23:13:58.004Z,6.47
2022-11-15T23:18:02.416Z,6.43
2022-11-15T23:22:23.433Z,6.10
2022-11-15T23:26:26.974Z,6.43
2022-11-15T23:30:47.943Z,6.18
2022-11-15T23:34:52.451Z,6.50
2022-11-15T23:38:56.393Z,6.00
2022-11-15T23:43:00.396Z,5.60
2022-11-15T23:47:03.559Z,5.60
2022-11-15T23:51:10.530Z,5.95
2022-11-15T23:55:13.576Z,4.68
2022-11-15T23:59:17.162Z,5.65
